sensor_id;sensor_type;location;lat;lon;timestamp;temperature;humidity
7194;DHT22;3638;48.820;9.244;2022-12-29T00:02:44;8.30;99.90
7194;DHT22;3638;48.820;9.244;2022-12-29T00:05:13;8.30;99.90
7194;DHT22;3638;48.820;9.244;2022-12-29T00:07:40;8.30;99.90
7194;DHT22;3638;48.820;9.244;2022-12-29T00:10:07;8.30;99.90
7194;DHT22;3638;48.820;9.244;2022-12-29T00:12:34;8.50;99.90
7194;DHT22;3638;48.820;9.244;2022-12-29T00:18:04;8.50;99.90
7194;DHT22;3638;48.820;9.244;2022-12-29T00:20:35;8.50;99.90
7194;DHT22;3638;48.820;9.244;2022-12-29T00:23:20;8.50;99.90
7194;DHT22;3638;48.820;9.244;2022-12-29T00:26:11;8.50;99.90
7194;DHT22;3638;48.820;9.244;2022-12-29T00:28:57;8.50;99.90
7194;DHT22;3638;48.820;9.244;2022-12-29T00:34:26;8.50;99.90
7194;DHT22;3638;48.820;9.244;2022-12-29T00:37:12;8.60;99.90
7194;DHT22;3638;48.820;9.244;2022-12-29T00:39:39;8.50;99.90
7194;DHT22;3638;48.820;9.244;2022-12-29T00:42:23;8.60;99.90
7194;DHT22;3638;48.820;9.244;2022-12-29T00:45:08;8.60;99.90
7194;DHT22;3638;48.820;9.244;2022-12-29T00:47:35;8.60;99.90
7194;DHT22;3638;48.820;9.244;2022-12-29T00:50:02;8.70;99.90
7194;DHT22;3638;48.820;9.244;2022-12-29T00:52:30;8.70;99.90
7194;DHT22;3638;48.820;9.244;2022-12-29T00:54:56;8.80;99.90
7194;DHT22;3638;48.820;9.244;2022-12-29T00:59:50;8.80;99.90
7194;DHT22;3638;48.820;9.244;2022-12-29T01:02:17;8.80;99.90
7194;DHT22;3638;48.820;9.244;2022-12-29T01:07:11;9.00;99.90
7194;DHT22;3638;48.820;9.244;2022-12-29T01:09:40;9.00;99.90
7194;DHT22;3638;48.820;9.244;2022-12-29T01:12:24;9.10;99.90
7194;DHT22;3638;48.820;9.244;2022-12-29T01:15:05;9.10;99.90
7194;DHT22;3638;48.820;9.244;2022-12-29T01:17:33;9.10;99.90
7194;DHT22;3638;48.820;9.244;2022-12-29T01:22:28;9.20;99.90
7194;DHT22;3638;48.820;9.244;2022-12-29T01:24:56;9.20;99.90
7194;DHT22;3638;48.820;9.244;2022-12-29T01:27:23;9.20;99.90
7194;DHT22;3638;48.820;9.244;2022-12-29T01:29:50;9.20;99.90
7194;DHT22;3638;48.820;9.244;2022-12-29T01:34:44;9.30;99.90
7194;DHT22;3638;48.820;9.244;2022-12-29T01:37:11;9.20;99.90
7194;DHT22;3638;48.820;9.244;2022-12-29T01:39:38;9.20;99.90
7194;DHT22;3638;48.820;9.244;2022-12-29T01:42:12;9.20;99.90
7194;DHT22;3638;48.820;9.244;2022-12-29T01:44:54;9.20;99.90
7194;DHT22;3638;48.820;9.244;2022-12-29T01:47:32;9.20;99.90
7194;DHT22;3638;48.820;9.244;2022-12-29T01:50:05;9.20;99.90
7194;DHT22;3638;48.820;9.244;2022-12-29T01:52:35;9.20;99.90
7194;DHT22;3638;48.820;9.244;2022-12-29T01:55:05;9.30;99.90
7194;DHT22;3638;48.820;9.244;2022-12-29T01:57:37;9.30;99.90
7194;DHT22;3638;48.820;9.244;2022-12-29T02:00:09;9.40;99.90
7194;DHT22;3638;48.820;9.244;2022-12-29T02:02:38;9.40;99.90
7194;DHT22;3638;48.820;9.244;2022-12-29T02:05:10;9.40;99.90
7194;DHT22;3638;48.820;9.244;2022-12-29T02:07:38;9.40;99.90
7194;DHT22;3638;48.820;9.244;2022-12-29T02:10:06;9.40;99.90
7194;DHT22;3638;48.820;9.244;2022-12-29T02:12:35;9.40;99.90
7194;DHT22;3638;48.820;9.244;2022-12-29T02:15:02;9.40;99.90
7194;DHT22;3638;48.820;9.244;2022-12-29T02:17:41;9.40;99.90
7194;DHT22;3638;48.820;9.244;2022-12-29T02:24:35;9.40;99.90
7194;DHT22;3638;48.820;9.244;2022-12-29T02:30:31;9.50;99.90
7194;DHT22;3638;48.820;9.244;2022-12-29T02:33:21;9.60;99.90
7194;DHT22;3638;48.820;9.244;2022-12-29T02:35:58;9.60;99.90
7194;DHT22;3638;48.820;9.244;2022-12-29T02:38:47;9.70;99.90
7194;DHT22;3638;48.820;9.244;2022-12-29T02:41:21;9.70;99.90
7194;DHT22;3638;48.820;9.244;2022-12-29T02:43:54;9.70;99.90
7194;DHT22;3638;48.820;9.244;2022-12-29T02:46:28;9.70;99.90
7194;DHT22;3638;48.820;9.244;2022-12-29T02:49:06;9.70;99.90
7194;DHT22;3638;48.820;9.244;2022-12-29T02:51:43;9.60;99.90
7194;DHT22;3638;48.820;9.244;2022-12-29T02:54:12;9.60;99.90
7194;DHT22;3638;48.820;9.244;2022-12-29T02:56:57;9.70;99.90
7194;DHT22;3638;48.820;9.244;2022-12-29T02:59:24;9.70;99.90
7194;DHT22;3638;48.820;9.244;2022-12-29T03:02:08;9.80;99.90
7194;DHT22;3638;48.820;9.244;2022-12-29T03:07:39;9.80;99.90
7194;DHT22;3638;48.820;9.244;2022-12-29T03:10:17;9.90;99.90
7194;DHT22;3638;48.820;9.244;2022-12-29T03:12:56;9.90;99.90
7194;DHT22;3638;48.820;9.244;2022-12-29T03:15:46;9.90;99.90
7194;DHT22;3638;48.820;9.244;2022-12-29T03:18:37;9.90;99.90
7194;DHT22;3638;48.820;9.244;2022-12-29T03:21:11;10.00;99.90
7194;DHT22;3638;48.820;9.244;2022-12-29T03:23:41;10.00;99.90
7194;DHT22;3638;48.820;9.244;2022-12-29T03:26:11;9.90;99.90
7194;DHT22;3638;48.820;9.244;2022-12-29T03:28:43;10.00;99.90
7194;DHT22;3638;48.820;9.244;2022-12-29T03:31:12;10.00;99.90
7194;DHT22;3638;48.820;9.244;2022-12-29T03:33:42;10.10;99.90
7194;DHT22;3638;48.820;9.244;2022-12-29T03:36:14;10.20;99.90
7194;DHT22;3638;48.820;9.244;2022-12-29T03:38:46;10.20;99.90
7194;DHT22;3638;48.820;9.244;2022-12-29T03:41:20;10.30;99.90
7194;DHT22;3638;48.820;9.244;2022-12-29T03:43:50;10.30;99.90
7194;DHT22;3638;48.820;9.244;2022-12-29T03:46:17;10.30;99.90
7194;DHT22;3638;48.820;9.244;2022-12-29T03:48:46;10.30;99.90
7194;DHT22;3638;48.820;9.244;2022-12-29T03:53:40;10.40;99.90
7194;DHT22;3638;48.820;9.244;2022-12-29T03:56:07;10.50;99.90
7194;DHT22;3638;48.820;9.244;2022-12-29T04:01:01;10.50;99.90
7194;DHT22;3638;48.820;9.244;2022-12-29T04:03:27;10.60;99.90
7194;DHT22;3638;48.820;9.244;2022-12-29T04:05:56;10.60;99.90
7194;DHT22;3638;48.820;9.244;2022-12-29T04:10:50;10.50;99.90
7194;DHT22;3638;48.820;9.244;2022-12-29T04:13:17;10.40;99.90
7194;DHT22;3638;48.820;9.244;2022-12-29T04:15:44;10.40;99.90
7194;DHT22;3638;48.820;9.244;2022-12-29T04:18:11;10.40;99.90
7194;DHT22;3638;48.820;9.244;2022-12-29T04:23:25;10.50;99.90
7194;DHT22;3638;48.820;9.244;2022-12-29T04:28:19;10.60;99.90
7194;DHT22;3638;48.820;9.244;2022-12-29T04:30:47;10.70;99.90
7194;DHT22;3638;48.820;9.244;2022-12-29T04:33:14;8.10;99.90
7194;DHT22;3638;48.820;9.244;2022-12-29T04:35:41;10.80;99.90
7194;DHT22;3638;48.820;9.244;2022-12-29T04:40:40;10.80;99.90
7194;DHT22;3638;48.820;9.244;2022-12-29T04:43:08;10.90;99.90
7194;DHT22;3638;48.820;9.244;2022-12-29T04:45:35;10.90;99.90
7194;DHT22;3638;48.820;9.244;2022-12-29T04:48:03;10.90;99.90
7194;DHT22;3638;48.820;9.244;2022-12-29T04:52:57;10.70;99.90
7194;DHT22;3638;48.820;9.244;2022-12-29T04:57:53;10.70;99.90
7194;DHT22;3638;48.820;9.244;2022-12-29T05:00:20;10.70;99.90
7194;DHT22;3638;48.820;9.244;2022-12-29T05:02:47;10.70;99.90
7194;DHT22;3638;48.820;9.244;2022-12-29T05:05:14;10.70;99.90
7194;DHT22;3638;48.820;9.244;2022-12-29T05:07:41;10.70;99.90
7194;DHT22;3638;48.820;9.244;2022-12-29T05:12:37;10.70;99.90
7194;DHT22;3638;48.820;9.244;2022-12-29T05:15:08;10.80;99.90
7194;DHT22;3638;48.820;9.244;2022-12-29T05:17:35;11.00;99.90
7194;DHT22;3638;48.820;9.244;2022-12-29T05:20:04;10.90;99.90
7194;DHT22;3638;48.820;9.244;2022-12-29T05:22:32;10.90;99.90
7194;DHT22;3638;48.820;9.244;2022-12-29T05:24:59;10.80;99.90
7194;DHT22;3638;48.820;9.244;2022-12-29T05:27:26;10.80;99.90
7194;DHT22;3638;48.820;9.244;2022-12-29T05:32:21;10.80;99.90
7194;DHT22;3638;48.820;9.244;2022-12-29T05:34:48;10.80;99.90
7194;DHT22;3638;48.820;9.244;2022-12-29T05:37:15;10.90;99.90
7194;DHT22;3638;48.820;9.244;2022-12-29T05:47:04;10.90;99.90
7194;DHT22;3638;48.820;9.244;2022-12-29T05:49:32;11.00;99.90
7194;DHT22;3638;48.820;9.244;2022-12-29T05:51:59;11.00;99.90
7194;DHT22;3638;48.820;9.244;2022-12-29T05:56:53;10.90;99.90
7194;DHT22;3638;48.820;9.244;2022-12-29T05:59:20;10.90;99.90
7194;DHT22;3638;48.820;9.244;2022-12-29T06:01:47;11.00;99.90
7194;DHT22;3638;48.820;9.244;2022-12-29T06:06:43;11.10;99.90
7194;DHT22;3638;48.820;9.244;2022-12-29T06:11:37;11.00;99.90
7194;DHT22;3638;48.820;9.244;2022-12-29T06:14:04;10.90;99.90
7194;DHT22;3638;48.820;9.244;2022-12-29T06:18:58;11.00;99.90
7194;DHT22;3638;48.820;9.244;2022-12-29T06:21:25;10.90;99.90
7194;DHT22;3638;48.820;9.244;2022-12-29T06:23:53;10.90;99.90
7194;DHT22;3638;48.820;9.244;2022-12-29T06:26:20;10.90;99.90
7194;DHT22;3638;48.820;9.244;2022-12-29T06:28:47;10.90;99.90
7194;DHT22;3638;48.820;9.244;2022-12-29T06:31:14;10.80;99.90
7194;DHT22;3638;48.820;9.244;2022-12-29T06:33:41;10.80;99.90
7194;DHT22;3638;48.820;9.244;2022-12-29T06:36:08;10.90;99.90
7194;DHT22;3638;48.820;9.244;2022-12-29T06:38:35;10.80;99.90
7194;DHT22;3638;48.820;9.244;2022-12-29T06:41:03;10.70;99.90
7194;DHT22;3638;48.820;9.244;2022-12-29T06:43:30;10.70;99.90
7194;DHT22;3638;48.820;9.244;2022-12-29T06:45:57;10.70;99.90
7194;DHT22;3638;48.820;9.244;2022-12-29T06:48:24;10.60;99.90
7194;DHT22;3638;48.820;9.244;2022-12-29T06:50:51;10.60;99.90
7194;DHT22;3638;48.820;9.244;2022-12-29T06:53:18;10.60;99.90
7194;DHT22;3638;48.820;9.244;2022-12-29T06:55:45;10.50;99.90
7194;DHT22;3638;48.820;9.244;2022-12-29T06:58:13;10.50;99.90
7194;DHT22;3638;48.820;9.244;2022-12-29T07:00:40;10.40;99.90
7194;DHT22;3638;48.820;9.244;2022-12-29T07:05:34;10.20;99.90
7194;DHT22;3638;48.820;9.244;2022-12-29T07:12:55;10.20;99.90
7194;DHT22;3638;48.820;9.244;2022-12-29T07:15:23;10.20;99.90
7194;DHT22;3638;48.820;9.244;2022-12-29T07:17:50;10.30;99.90
7194;DHT22;3638;48.820;9.244;2022-12-29T07:20:17;10.20;99.90
7194;DHT22;3638;48.820;9.244;2022-12-29T07:25:12;10.20;99.90
7194;DHT22;3638;48.820;9.244;2022-12-29T07:27:39;10.20;99.90
7194;DHT22;3638;48.820;9.244;2022-12-29T07:30:07;10.20;99.90
7194;DHT22;3638;48.820;9.244;2022-12-29T07:32:36;10.20;99.90
7194;DHT22;3638;48.820;9.244;2022-12-29T07:37:30;10.30;99.90
7194;DHT22;3638;48.820;9.244;2022-12-29T07:39:57;10.30;99.90
7194;DHT22;3638;48.820;9.244;2022-12-29T07:47:18;10.30;99.90
7194;DHT22;3638;48.820;9.244;2022-12-29T07:49:47;10.30;99.90
7194;DHT22;3638;48.820;9.244;2022-12-29T07:54:41;10.40;99.90
7194;DHT22;3638;48.820;9.244;2022-12-29T07:57:08;10.40;99.90
7194;DHT22;3638;48.820;9.244;2022-12-29T07:59:35;10.40;99.90
7194;DHT22;3638;48.820;9.244;2022-12-29T08:06:57;10.80;99.90
7194;DHT22;3638;48.820;9.244;2022-12-29T08:09:25;10.80;99.90
7194;DHT22;3638;48.820;9.244;2022-12-29T08:11:53;11.00;99.90
7194;DHT22;3638;48.820;9.244;2022-12-29T08:14:20;11.00;99.90
7194;DHT22;3638;48.820;9.244;2022-12-29T08:16:47;11.00;99.90
7194;DHT22;3638;48.820;9.244;2022-12-29T08:19:14;11.10;99.90
7194;DHT22;3638;48.820;9.244;2022-12-29T08:21:41;11.20;99.90
7194;DHT22;3638;48.820;9.244;2022-12-29T08:24:09;11.20;99.90
7194;DHT22;3638;48.820;9.244;2022-12-29T08:29:05;11.30;99.90
7194;DHT22;3638;48.820;9.244;2022-12-29T08:33:59;11.40;99.90
7194;DHT22;3638;48.820;9.244;2022-12-29T08:36:28;11.40;99.90
7194;DHT22;3638;48.820;9.244;2022-12-29T08:41:25;11.40;99.90
7194;DHT22;3638;48.820;9.244;2022-12-29T08:46:19;11.50;99.90
7194;DHT22;3638;48.820;9.244;2022-12-29T08:51:13;11.40;99.90
7194;DHT22;3638;48.820;9.244;2022-12-29T08:56:09;11.50;99.90
7194;DHT22;3638;48.820;9.244;2022-12-29T08:58:38;11.50;99.90
7194;DHT22;3638;48.820;9.244;2022-12-29T09:01:04;11.60;99.90
7194;DHT22;3638;48.820;9.244;2022-12-29T09:13:20;11.80;99.90
7194;DHT22;3638;48.820;9.244;2022-12-29T09:15:55;11.80;99.90
7194;DHT22;3638;48.820;9.244;2022-12-29T09:18:24;11.90;99.90
7194;DHT22;3638;48.820;9.244;2022-12-29T09:20:56;11.80;99.90
7194;DHT22;3638;48.820;9.244;2022-12-29T09:25:51;12.70;99.90
7194;DHT22;3638;48.820;9.244;2022-12-29T09:28:18;11.90;99.90
7194;DHT22;3638;48.820;9.244;2022-12-29T09:33:14;11.90;99.90
7194;DHT22;3638;48.820;9.244;2022-12-29T09:35:42;11.90;99.90
7194;DHT22;3638;48.820;9.244;2022-12-29T09:40:38;12.00;99.90
7194;DHT22;3638;48.820;9.244;2022-12-29T09:43:29;12.10;99.90
7194;DHT22;3638;48.820;9.244;2022-12-29T09:46:13;12.20;99.90
7194;DHT22;3638;48.820;9.244;2022-12-29T09:48:48;12.30;99.90
7194;DHT22;3638;48.820;9.244;2022-12-29T09:51:21;12.50;99.90
7194;DHT22;3638;48.820;9.244;2022-12-29T09:53:52;12.50;99.90
7194;DHT22;3638;48.820;9.244;2022-12-29T09:56:23;12.60;99.90
7194;DHT22;3638;48.820;9.244;2022-12-29T09:58:54;12.90;99.90
7194;DHT22;3638;48.820;9.244;2022-12-29T10:01:29;11.60;99.90
7194;DHT22;3638;48.820;9.244;2022-12-29T10:04:00;13.10;99.90
7194;DHT22;3638;48.820;9.244;2022-12-29T10:06:34;13.20;99.90
7194;DHT22;3638;48.820;9.244;2022-12-29T10:09:13;13.10;99.90
7194;DHT22;3638;48.820;9.244;2022-12-29T10:12:06;13.00;99.90
7194;DHT22;3638;48.820;9.244;2022-12-29T10:14:52;12.80;99.90
7194;DHT22;3638;48.820;9.244;2022-12-29T10:17:33;12.80;99.90
7194;DHT22;3638;48.820;9.244;2022-12-29T10:20:27;12.70;99.90
7194;DHT22;3638;48.820;9.244;2022-12-29T10:23:14;12.70;99.90
7194;DHT22;3638;48.820;9.244;2022-12-29T10:25:48;12.70;99.90
7194;DHT22;3638;48.820;9.244;2022-12-29T10:28:21;12.70;99.90
7194;DHT22;3638;48.820;9.244;2022-12-29T10:30:50;12.60;99.90
7194;DHT22;3638;48.820;9.244;2022-12-29T10:33:20;12.70;99.90
7194;DHT22;3638;48.820;9.244;2022-12-29T10:35:51;12.70;99.90
7194;DHT22;3638;48.820;9.244;2022-12-29T10:38:23;12.70;99.90
7194;DHT22;3638;48.820;9.244;2022-12-29T10:40:57;12.70;99.90
7194;DHT22;3638;48.820;9.244;2022-12-29T10:43:27;12.70;99.90
7194;DHT22;3638;48.820;9.244;2022-12-29T10:45:59;12.80;99.90
7194;DHT22;3638;48.820;9.244;2022-12-29T10:48:31;12.80;99.90
7194;DHT22;3638;48.820;9.244;2022-12-29T10:51:03;12.90;99.90
7194;DHT22;3638;48.820;9.244;2022-12-29T10:53:37;13.00;99.90
7194;DHT22;3638;48.820;9.244;2022-12-29T10:56:28;13.20;99.90
7194;DHT22;3638;48.820;9.244;2022-12-29T10:59:01;13.40;99.90
7194;DHT22;3638;48.820;9.244;2022-12-29T11:01:38;13.60;99.90
7194;DHT22;3638;48.820;9.244;2022-12-29T11:04:21;13.80;99.90
7194;DHT22;3638;48.820;9.244;2022-12-29T11:06:56;13.80;99.90
7194;DHT22;3638;48.820;9.244;2022-12-29T11:09:27;13.90;99.90
7194;DHT22;3638;48.820;9.244;2022-12-29T11:14:27;13.90;99.90
7194;DHT22;3638;48.820;9.244;2022-12-29T11:16:57;14.00;99.90
7194;DHT22;3638;48.820;9.244;2022-12-29T11:19:28;14.00;99.90
7194;DHT22;3638;48.820;9.244;2022-12-29T11:22:13;14.10;99.90
7194;DHT22;3638;48.820;9.244;2022-12-29T11:24:45;14.10;99.90
7194;DHT22;3638;48.820;9.244;2022-12-29T11:27:15;14.00;99.90
7194;DHT22;3638;48.820;9.244;2022-12-29T11:29:44;14.00;99.90
7194;DHT22;3638;48.820;9.244;2022-12-29T11:32:17;13.90;99.90
7194;DHT22;3638;48.820;9.244;2022-12-29T11:34:45;13.90;99.90
7194;DHT22;3638;48.820;9.244;2022-12-29T11:37:15;13.90;99.90
7194;DHT22;3638;48.820;9.244;2022-12-29T11:39:49;13.90;99.90
7194;DHT22;3638;48.820;9.244;2022-12-29T11:42:20;13.80;99.90
7194;DHT22;3638;48.820;9.244;2022-12-29T11:44:50;13.90;99.90
7194;DHT22;3638;48.820;9.244;2022-12-29T11:47:26;13.80;99.90
7194;DHT22;3638;48.820;9.244;2022-12-29T11:49:57;13.70;99.90
7194;DHT22;3638;48.820;9.244;2022-12-29T11:52:29;13.60;99.90
7194;DHT22;3638;48.820;9.244;2022-12-29T11:55:01;13.40;99.90
7194;DHT22;3638;48.820;9.244;2022-12-29T11:57:32;13.40;99.90
7194;DHT22;3638;48.820;9.244;2022-12-29T12:00:06;13.20;99.90
7194;DHT22;3638;48.820;9.244;2022-12-29T12:02:45;13.10;99.90
7194;DHT22;3638;48.820;9.244;2022-12-29T12:05:21;12.90;99.90
7194;DHT22;3638;48.820;9.244;2022-12-29T12:07:56;12.80;99.90
7194;DHT22;3638;48.820;9.244;2022-12-29T12:10:30;12.60;99.90
7194;DHT22;3638;48.820;9.244;2022-12-29T12:13:05;12.60;99.90
7194;DHT22;3638;48.820;9.244;2022-12-29T12:15:39;12.50;99.90
7194;DHT22;3638;48.820;9.244;2022-12-29T12:18:10;12.50;99.90
7194;DHT22;3638;48.820;9.244;2022-12-29T12:20:45;12.50;99.90
7194;DHT22;3638;48.820;9.244;2022-12-29T12:23:44;12.50;99.90
7194;DHT22;3638;48.820;9.244;2022-12-29T12:26:28;12.50;99.90
7194;DHT22;3638;48.820;9.244;2022-12-29T12:29:00;12.50;99.90
7194;DHT22;3638;48.820;9.244;2022-12-29T12:31:43;12.60;99.90
7194;DHT22;3638;48.820;9.244;2022-12-29T12:34:17;12.70;99.90
7194;DHT22;3638;48.820;9.244;2022-12-29T12:37:15;12.70;99.90
7194;DHT22;3638;48.820;9.244;2022-12-29T12:40:07;12.90;99.90
7194;DHT22;3638;48.820;9.244;2022-12-29T12:42:49;13.00;99.90
7194;DHT22;3638;48.820;9.244;2022-12-29T12:45:38;13.20;99.90
7194;DHT22;3638;48.820;9.244;2022-12-29T12:48:28;13.10;99.90
7194;DHT22;3638;48.820;9.244;2022-12-29T12:51:10;13.00;99.90
7194;DHT22;3638;48.820;9.244;2022-12-29T12:53:55;12.90;99.90
7194;DHT22;3638;48.820;9.244;2022-12-29T12:56:47;13.00;99.90
7194;DHT22;3638;48.820;9.244;2022-12-29T12:59:30;13.10;99.90
7194;DHT22;3638;48.820;9.244;2022-12-29T13:02:15;13.10;99.90
7194;DHT22;3638;48.820;9.244;2022-12-29T13:04:56;13.20;99.90
7194;DHT22;3638;48.820;9.244;2022-12-29T13:07:43;13.20;99.90
7194;DHT22;3638;48.820;9.244;2022-12-29T13:10:41;13.30;99.90
7194;DHT22;3638;48.820;9.244;2022-12-29T13:13:37;13.40;99.90
7194;DHT22;3638;48.820;9.244;2022-12-29T13:16:25;13.40;99.90
7194;DHT22;3638;48.820;9.244;2022-12-29T13:19:00;13.40;99.90
7194;DHT22;3638;48.820;9.244;2022-12-29T13:21:40;13.40;99.90
7194;DHT22;3638;48.820;9.244;2022-12-29T13:24:20;13.50;99.90
7194;DHT22;3638;48.820;9.244;2022-12-29T13:26:55;13.40;99.90
7194;DHT22;3638;48.820;9.244;2022-12-29T13:29:32;13.40;99.90
7194;DHT22;3638;48.820;9.244;2022-12-29T13:32:13;13.30;99.90
7194;DHT22;3638;48.820;9.244;2022-12-29T13:34:56;13.20;99.90
7194;DHT22;3638;48.820;9.244;2022-12-29T13:37:40;13.10;99.90
7194;DHT22;3638;48.820;9.244;2022-12-29T13:40:16;13.00;99.90
7194;DHT22;3638;48.820;9.244;2022-12-29T13:42:46;12.90;99.90
7194;DHT22;3638;48.820;9.244;2022-12-29T13:45:18;12.90;99.90
7194;DHT22;3638;48.820;9.244;2022-12-29T13:47:52;12.80;99.90
7194;DHT22;3638;48.820;9.244;2022-12-29T13:50:24;12.70;99.90
7194;DHT22;3638;48.820;9.244;2022-12-29T13:53:01;12.70;99.90
7194;DHT22;3638;48.820;9.244;2022-12-29T13:55:36;12.70;99.90
7194;DHT22;3638;48.820;9.244;2022-12-29T13:58:12;12.70;99.90
7194;DHT22;3638;48.820;9.244;2022-12-29T14:00:51;12.70;99.90
7194;DHT22;3638;48.820;9.244;2022-12-29T14:03:41;12.70;99.90
7194;DHT22;3638;48.820;9.244;2022-12-29T14:06:15;12.60;99.90
7194;DHT22;3638;48.820;9.244;2022-12-29T14:08:47;12.50;99.90
7194;DHT22;3638;48.820;9.244;2022-12-29T14:11:15;12.50;99.90
7194;DHT22;3638;48.820;9.244;2022-12-29T14:13:46;12.50;99.90
7194;DHT22;3638;48.820;9.244;2022-12-29T14:16:26;12.60;99.90
7194;DHT22;3638;48.820;9.244;2022-12-29T14:18:57;12.50;99.90
7194;DHT22;3638;48.820;9.244;2022-12-29T14:21:32;12.50;99.90
7194;DHT22;3638;48.820;9.244;2022-12-29T14:24:27;12.50;99.90
7194;DHT22;3638;48.820;9.244;2022-12-29T14:33:28;12.50;99.90
7194;DHT22;3638;48.820;9.244;2022-12-29T14:35:57;12.40;99.90
7194;DHT22;3638;48.820;9.244;2022-12-29T14:38:29;12.40;99.90
7194;DHT22;3638;48.820;9.244;2022-12-29T14:41:17;12.40;99.90
7194;DHT22;3638;48.820;9.244;2022-12-29T14:44:15;12.40;99.90
7194;DHT22;3638;48.820;9.244;2022-12-29T14:46:54;16.10;99.90
7194;DHT22;3638;48.820;9.244;2022-12-29T14:49:26;12.30;99.90
7194;DHT22;3638;48.820;9.244;2022-12-29T14:52:05;12.20;99.90
7194;DHT22;3638;48.820;9.244;2022-12-29T14:54:45;12.30;99.90
7194;DHT22;3638;48.820;9.244;2022-12-29T14:57:27;12.20;99.90
7194;DHT22;3638;48.820;9.244;2022-12-29T15:00:00;12.20;99.90
7194;DHT22;3638;48.820;9.244;2022-12-29T15:02:36;12.10;99.90
7194;DHT22;3638;48.820;9.244;2022-12-29T15:05:24;12.20;99.90
7194;DHT22;3638;48.820;9.244;2022-12-29T15:07:57;12.10;99.90
7194;DHT22;3638;48.820;9.244;2022-12-29T15:10:26;12.10;99.90
7194;DHT22;3638;48.820;9.244;2022-12-29T15:12:54;12.10;99.90
7194;DHT22;3638;48.820;9.244;2022-12-29T15:15:24;12.00;99.90
7194;DHT22;3638;48.820;9.244;2022-12-29T15:20:26;12.00;99.90
7194;DHT22;3638;48.820;9.244;2022-12-29T15:22:56;11.90;99.90
7194;DHT22;3638;48.820;9.244;2022-12-29T15:25:24;12.00;99.90
7194;DHT22;3638;48.820;9.244;2022-12-29T15:27:56;12.00;99.90
7194;DHT22;3638;48.820;9.244;2022-12-29T15:30:26;11.90;99.90
7194;DHT22;3638;48.820;9.244;2022-12-29T15:32:53;11.90;99.90
7194;DHT22;3638;48.820;9.244;2022-12-29T15:35:28;11.90;99.90
7194;DHT22;3638;48.820;9.244;2022-12-29T15:37:57;11.90;99.90
7194;DHT22;3638;48.820;9.244;2022-12-29T15:40:26;11.90;99.90
7194;DHT22;3638;48.820;9.244;2022-12-29T15:43:09;11.80;99.90
7194;DHT22;3638;48.820;9.244;2022-12-29T15:48:15;11.90;99.90
7194;DHT22;3638;48.820;9.244;2022-12-29T15:50:45;11.90;99.90
7194;DHT22;3638;48.820;9.244;2022-12-29T15:53:18;11.80;99.90
7194;DHT22;3638;48.820;9.244;2022-12-29T15:55:50;11.50;99.90
7194;DHT22;3638;48.820;9.244;2022-12-29T15:58:20;11.20;99.90
7194;DHT22;3638;48.820;9.244;2022-12-29T16:00:50;10.90;99.90
7194;DHT22;3638;48.820;9.244;2022-12-29T16:03:19;10.80;99.90
7194;DHT22;3638;48.820;9.244;2022-12-29T16:05:53;10.80;99.90
7194;DHT22;3638;48.820;9.244;2022-12-29T16:08:27;10.70;99.90
7194;DHT22;3638;48.820;9.244;2022-12-29T16:11:00;10.60;99.90
7194;DHT22;3638;48.820;9.244;2022-12-29T16:13:30;10.60;99.90
7194;DHT22;3638;48.820;9.244;2022-12-29T16:16:01;10.60;99.90
7194;DHT22;3638;48.820;9.244;2022-12-29T16:18:33;10.60;99.90
7194;DHT22;3638;48.820;9.244;2022-12-29T16:21:04;10.50;99.90
7194;DHT22;3638;48.820;9.244;2022-12-29T16:23:32;10.40;99.90
7194;DHT22;3638;48.820;9.244;2022-12-29T16:26:03;10.40;99.90
7194;DHT22;3638;48.820;9.244;2022-12-29T16:28:36;10.40;99.90
7194;DHT22;3638;48.820;9.244;2022-12-29T16:31:17;10.50;99.90
7194;DHT22;3638;48.820;9.244;2022-12-29T16:33:48;10.50;99.90
7194;DHT22;3638;48.820;9.244;2022-12-29T16:36:51;10.50;99.90
7194;DHT22;3638;48.820;9.244;2022-12-29T16:39:24;10.60;99.90
7194;DHT22;3638;48.820;9.244;2022-12-29T16:41:54;10.70;99.90
7194;DHT22;3638;48.820;9.244;2022-12-29T16:44:22;10.70;99.90
7194;DHT22;3638;48.820;9.244;2022-12-29T16:47:18;10.70;99.90
7194;DHT22;3638;48.820;9.244;2022-12-29T16:49:50;10.60;99.90
7194;DHT22;3638;48.820;9.244;2022-12-29T16:52:23;10.70;99.90
7194;DHT22;3638;48.820;9.244;2022-12-29T16:54:54;10.60;99.90
7194;DHT22;3638;48.820;9.244;2022-12-29T16:57:28;10.60;99.90
7194;DHT22;3638;48.820;9.244;2022-12-29T16:59:59;10.60;99.90
7194;DHT22;3638;48.820;9.244;2022-12-29T17:02:30;10.60;99.90
7194;DHT22;3638;48.820;9.244;2022-12-29T17:04:58;10.60;99.90
7194;DHT22;3638;48.820;9.244;2022-12-29T17:07:27;10.60;99.90
7194;DHT22;3638;48.820;9.244;2022-12-29T17:09:54;15.10;99.90
7194;DHT22;3638;48.820;9.244;2022-12-29T17:12:23;10.50;99.90
7194;DHT22;3638;48.820;9.244;2022-12-29T17:14:52;10.40;99.90
7194;DHT22;3638;48.820;9.244;2022-12-29T17:17:28;10.50;99.90
7194;DHT22;3638;48.820;9.244;2022-12-29T17:20:01;10.40;99.90
7194;DHT22;3638;48.820;9.244;2022-12-29T17:22:31;10.30;99.90
7194;DHT22;3638;48.820;9.244;2022-12-29T17:24:59;10.10;99.90
7194;DHT22;3638;48.820;9.244;2022-12-29T17:27:30;10.10;99.90
7194;DHT22;3638;48.820;9.244;2022-12-29T17:30:02;10.30;99.90
7194;DHT22;3638;48.820;9.244;2022-12-29T17:32:31;10.20;99.90
7194;DHT22;3638;48.820;9.244;2022-12-29T17:37:36;10.40;99.90
7194;DHT22;3638;48.820;9.244;2022-12-29T17:40:06;10.30;99.90
7194;DHT22;3638;48.820;9.244;2022-12-29T17:42:37;10.20;99.90
7194;DHT22;3638;48.820;9.244;2022-12-29T17:45:12;10.10;99.90
7194;DHT22;3638;48.820;9.244;2022-12-29T17:47:41;10.10;99.90
7194;DHT22;3638;48.820;9.244;2022-12-29T17:50:11;10.10;99.90
7194;DHT22;3638;48.820;9.244;2022-12-29T17:52:42;10.00;99.90
7194;DHT22;3638;48.820;9.244;2022-12-29T17:55:14;10.00;99.90
7194;DHT22;3638;48.820;9.244;2022-12-29T18:00:14;9.90;99.90
7194;DHT22;3638;48.820;9.244;2022-12-29T18:02:43;9.90;99.90
7194;DHT22;3638;48.820;9.244;2022-12-29T18:05:17;10.00;99.90
7194;DHT22;3638;48.820;9.244;2022-12-29T18:07:50;9.90;99.90
7194;DHT22;3638;48.820;9.244;2022-12-29T18:10:18;10.10;99.90
7194;DHT22;3638;48.820;9.244;2022-12-29T18:12:47;10.10;99.90
7194;DHT22;3638;48.820;9.244;2022-12-29T18:15:20;10.00;99.90
7194;DHT22;3638;48.820;9.244;2022-12-29T18:17:49;10.10;99.90
7194;DHT22;3638;48.820;9.244;2022-12-29T18:22:49;9.80;99.90
7194;DHT22;3638;48.820;9.244;2022-12-29T18:25:22;9.80;99.90
7194;DHT22;3638;48.820;9.244;2022-12-29T18:30:18;9.70;99.90
7194;DHT22;3638;48.820;9.244;2022-12-29T18:32:45;9.60;99.90
7194;DHT22;3638;48.820;9.244;2022-12-29T18:35:16;9.50;99.90
7194;DHT22;3638;48.820;9.244;2022-12-29T18:40:14;9.40;99.90
7194;DHT22;3638;48.820;9.244;2022-12-29T18:42:41;9.50;99.90
7194;DHT22;3638;48.820;9.244;2022-12-29T18:45:19;9.50;99.90
7194;DHT22;3638;48.820;9.244;2022-12-29T18:47:47;9.50;99.90
7194;DHT22;3638;48.820;9.244;2022-12-29T18:50:15;9.50;99.90
7194;DHT22;3638;48.820;9.244;2022-12-29T18:52:42;9.50;99.90
7194;DHT22;3638;48.820;9.244;2022-12-29T18:55:11;9.50;99.90
7194;DHT22;3638;48.820;9.244;2022-12-29T18:57:40;9.50;99.90
7194;DHT22;3638;48.820;9.244;2022-12-29T19:00:08;9.40;99.90
7194;DHT22;3638;48.820;9.244;2022-12-29T19:02:36;9.40;99.90
7194;DHT22;3638;48.820;9.244;2022-12-29T19:05:05;9.30;99.90
7194;DHT22;3638;48.820;9.244;2022-12-29T19:07:41;9.30;99.90
7194;DHT22;3638;48.820;9.244;2022-12-29T19:10:08;9.30;99.90
7194;DHT22;3638;48.820;9.244;2022-12-29T19:12:36;9.20;99.90